createdAt,value
2022-08-17T00:01:52.316Z,20.70
2022-08-17T00:04:20.644Z,20.70
2022-08-17T00:06:49.059Z,20.50
2022-08-17T00:09:18.814Z,20.40
2022-08-17T00:12:40.695Z,20.40
2022-08-17T00:14:36.103Z,20.30
2022-08-17T00:17:04.798Z,20.30
2022-08-17T00:19:32.944Z,20.20
2022-08-17T00:22:31.260Z,20.10
2022-08-17T00:24:50.209Z,20.10
2022-08-17T00:27:18.078Z,20.10
2022-08-17T00:29:45.940Z,20.10
2022-08-17T00:33:12.070Z,20.10
2022-08-17T00:35:08.447Z,20.20
2022-08-17T00:37:35.633Z,20.20
2022-08-17T00:40:02.833Z,20.20
2022-08-17T00:42:31.283Z,20.20
2022-08-17T00:44:59.379Z,20.30
2022-08-17T00:47:26.792Z,20.30
2022-08-17T00:49:54.099Z,20.30
2022-08-17T00:52:25.412Z,20.40
2022-08-17T00:54:54.911Z,20.40
2022-08-17T00:57:32.151Z,20.50
2022-08-17T01:00:14.335Z,20.60
2022-08-17T01:02:44.259Z,20.70
2022-08-17T01:05:16.597Z,20.70
2022-08-17T01:07:48.046Z,20.70
2022-08-17T01:10:58.995Z,20.80
2022-08-17T01:13:05.860Z,20.80
2022-08-17T01:15:37.469Z,20.80
2022-08-17T01:18:09.709Z,20.80
2022-08-17T01:20:57.827Z,20.70
2022-08-17T01:23:26.593Z,20.70
2022-08-17T01:25:56.760Z,20.60
2022-08-17T01:28:52.477Z,20.60
2022-08-17T01:31:14.324Z,20.50
2022-08-17T01:33:41.723Z,20.40
2022-08-17T01:36:08.735Z,20.30
2022-08-17T01:38:37.517Z,20.30
2022-08-17T01:41:11.323Z,20.30
2022-08-17T01:43:45.071Z,20.30
2022-08-17T01:46:18.790Z,20.20
2022-08-17T01:48:47.630Z,20.10
2022-08-17T01:51:16.187Z,20.00
2022-08-17T01:53:48.018Z,20.00
2022-08-17T01:56:18.459Z,20.00
2022-08-17T01:58:45.744Z,20.10
2022-08-17T02:01:14.823Z,20.00
2022-08-17T02:03:42.294Z,19.90
2022-08-17T02:06:27.627Z,19.80
2022-08-17T02:09:01.950Z,19.70
2022-08-17T02:11:31.185Z,19.60
2022-08-17T02:14:03.110Z,19.50
2022-08-17T02:16:36.968Z,19.50
2022-08-17T02:19:07.669Z,19.40
2022-08-17T02:21:35.592Z,19.30
2022-08-17T02:24:04.562Z,19.30
2022-08-17T02:26:32.524Z,19.30
2022-08-17T02:28:59.568Z,19.30
2022-08-17T02:31:26.865Z,19.20
2022-08-17T02:33:56.883Z,19.20
2022-08-17T02:36:30.472Z,19.10
2022-08-17T02:38:58.706Z,18.90
2022-08-17T02:41:25.806Z,18.90
2022-08-17T02:43:53.655Z,18.90
2022-08-17T02:46:20.636Z,18.80
2022-08-17T02:48:47.553Z,18.70
2022-08-17T02:51:14.826Z,18.80
2022-08-17T02:53:41.829Z,18.80
2022-08-17T02:56:08.786Z,18.70
2022-08-17T02:58:36.194Z,18.80
2022-08-17T03:01:07.492Z,18.80
2022-08-17T03:03:35.787Z,18.90
2022-08-17T03:06:04.041Z,18.90
2022-08-17T03:08:31.076Z,18.90
2022-08-17T03:10:58.020Z,18.90
2022-08-17T03:13:25.068Z,18.80
2022-08-17T03:15:52.036Z,18.80
2022-08-17T03:18:25.295Z,18.80
2022-08-17T03:20:59.186Z,18.70
2022-08-17T03:23:29.682Z,18.70
2022-08-17T03:25:59.652Z,18.70
2022-08-17T03:28:27.833Z,18.60
2022-08-17T03:30:55.148Z,18.60
2022-08-17T03:33:22.582Z,18.60
2022-08-17T03:35:49.832Z,18.50
2022-08-17T03:38:17.900Z,18.50
2022-08-17T03:40:56.729Z,18.50
2022-08-17T03:43:30.791Z,18.50
2022-08-17T03:46:28.340Z,18.50
2022-08-17T03:49:24.504Z,18.50
2022-08-17T03:52:10.616Z,18.60
2022-08-17T03:55:13.073Z,18.60
2022-08-17T03:57:40.644Z,18.60
2022-08-17T04:00:08.476Z,18.60
2022-08-17T04:02:36.097Z,18.60
2022-08-17T04:05:03.271Z,18.60
2022-08-17T04:07:31.435Z,18.60
2022-08-17T04:09:59.438Z,18.60
2022-08-17T04:12:30.840Z,18.60
2022-08-17T04:14:59.312Z,18.60
2022-08-17T04:17:29.051Z,18.70
2022-08-17T04:19:56.582Z,18.70
2022-08-17T04:22:31.159Z,18.70
2022-08-17T04:25:08.789Z,18.70
2022-08-17T04:27:36.257Z,18.70
2022-08-17T04:30:07.114Z,18.70
2022-08-17T04:33:03.409Z,18.80
2022-08-17T04:35:37.584Z,18.90
2022-08-17T04:38:05.095Z,18.90
2022-08-17T04:40:51.223Z,18.90
2022-08-17T04:43:21.360Z,18.90
2022-08-17T04:45:56.228Z,18.90
2022-08-17T04:48:36.987Z,18.90
2022-08-17T04:51:13.544Z,18.90
2022-08-17T04:53:53.891Z,18.90
2022-08-17T04:56:22.590Z,18.90
2022-08-17T04:58:51.705Z,19.00
2022-08-17T05:01:23.692Z,19.00
2022-08-17T05:03:56.645Z,19.10
2022-08-17T05:06:24.030Z,19.20
2022-08-17T05:08:51.073Z,19.20
2022-08-17T05:11:18.244Z,19.30
2022-08-17T05:13:45.457Z,19.30
2022-08-17T05:16:12.380Z,19.30
2022-08-17T05:18:39.587Z,19.40
2022-08-17T05:21:07.425Z,19.50
2022-08-17T05:23:43.151Z,19.60
2022-08-17T05:26:26.297Z,19.70
2022-08-17T05:28:58.504Z,19.80
2022-08-17T05:31:31.162Z,19.90
2022-08-17T05:33:58.801Z,20.10
2022-08-17T05:36:41.640Z,20.30
2022-08-17T05:39:16.424Z,20.50
2022-08-17T05:41:45.485Z,20.70
2022-08-17T05:44:12.685Z,20.80
2022-08-17T05:46:43.814Z,21.00
2022-08-17T05:49:11.896Z,21.00
2022-08-17T05:52:20.387Z,20.90
2022-08-17T05:55:39.571Z,20.90
2022-08-17T05:58:32.560Z,20.90
2022-08-17T06:01:51.481Z,20.80
2022-08-17T06:04:50.962Z,20.90
2022-08-17T06:07:40.976Z,21.00
2022-08-17T06:10:53.252Z,21.10
2022-08-17T06:14:00.654Z,21.40
2022-08-17T06:16:34.397Z,21.60
2022-08-17T06:19:24.962Z,21.90
2022-08-17T06:21:54.881Z,22.30
2022-08-17T06:24:45.930Z,22.60
2022-08-17T06:27:33.816Z,23.00
2022-08-17T06:30:11.190Z,23.80
2022-08-17T06:32:41.384Z,24.20
2022-08-17T06:35:11.498Z,24.00
2022-08-17T06:38:04.417Z,23.70
2022-08-17T06:41:22.831Z,23.60
2022-08-17T06:44:43.537Z,23.70
2022-08-17T06:47:28.635Z,23.90
2022-08-17T06:50:23.754Z,23.90
2022-08-17T06:53:02.519Z,23.80
2022-08-17T06:56:07.079Z,24.10
2022-08-17T06:58:35.792Z,23.80
2022-08-17T07:01:10.782Z,23.80
2022-08-17T07:04:24.074Z,23.80
2022-08-17T07:06:59.774Z,23.80
2022-08-17T07:09:34.025Z,24.40
2022-08-17T07:12:16.288Z,24.70
2022-08-17T07:15:08.380Z,24.80
2022-08-17T07:17:47.631Z,24.60
2022-08-17T07:20:17.931Z,24.30
2022-08-17T07:23:26.796Z,24.00
2022-08-17T07:26:03.903Z,23.90
2022-08-17T07:28:32.919Z,23.90
2022-08-17T07:31:00.336Z,23.90
2022-08-17T07:33:30.801Z,23.90
2022-08-17T07:35:59.399Z,23.90
2022-08-17T07:38:31.662Z,24.00
2022-08-17T07:41:05.322Z,24.00
2022-08-17T07:44:01.871Z,23.90
2022-08-17T07:47:05.327Z,23.80
2022-08-17T07:49:39.011Z,23.90
2022-08-17T07:52:24.233Z,24.10
2022-08-17T07:54:56.895Z,24.20
2022-08-17T07:57:32.606Z,24.50
2022-08-17T08:00:23.888Z,24.80
2022-08-17T08:03:26.207Z,25.30
2022-08-17T08:06:00.307Z,26.00
2022-08-17T08:08:50.529Z,26.60
2022-08-17T08:11:34.681Z,27.00
2022-08-17T08:14:33.669Z,27.60
2022-08-17T08:17:03.482Z,27.60
2022-08-17T08:19:32.233Z,27.70
2022-08-17T08:22:21.831Z,27.90
2022-08-17T08:25:32.829Z,27.40
2022-08-17T08:28:14.059Z,27.30
2022-08-17T08:30:47.147Z,27.60
2022-08-17T08:33:32.070Z,27.90
2022-08-17T08:37:13.105Z,28.40
2022-08-17T08:39:19.246Z,28.40
2022-08-17T08:42:24.316Z,27.80
2022-08-17T08:45:15.668Z,27.50
2022-08-17T08:48:53.899Z,27.80
2022-08-17T08:51:47.504Z,28.00
2022-08-17T08:54:26.588Z,28.90
2022-08-17T08:57:24.366Z,30.10
2022-08-17T09:00:20.548Z,31.40
2022-08-17T09:03:37.621Z,31.20
2022-08-17T09:06:39.271Z,30.70
2022-08-17T09:09:34.869Z,30.20
2022-08-17T09:12:41.323Z,30.90
2022-08-17T09:15:22.291Z,30.30
2022-08-17T09:19:00.092Z,30.00
2022-08-17T09:21:06.447Z,29.90
2022-08-17T09:26:43.113Z,30.00
2022-08-17T09:29:16.547Z,30.00
2022-08-17T09:31:58.007Z,29.90
2022-08-17T09:34:37.129Z,30.00
2022-08-17T09:37:30.520Z,30.40
2022-08-17T09:40:23.395Z,30.70
2022-08-17T09:43:16.328Z,30.80
2022-08-17T09:45:57.495Z,31.10
2022-08-17T09:48:55.423Z,31.10
2022-08-17T09:51:40.154Z,31.40
2022-08-17T09:54:39.156Z,31.30
2022-08-17T09:57:57.006Z,31.00
2022-08-17T10:00:27.957Z,31.30
2022-08-17T10:03:44.238Z,31.20
2022-08-17T10:06:22.797Z,31.20
2022-08-17T10:08:58.944Z,31.30
2022-08-17T10:11:57.553Z,31.00
2022-08-17T10:14:44.517Z,30.60
2022-08-17T10:17:27.901Z,30.60
2022-08-17T10:20:30.824Z,30.80
2022-08-17T10:23:26.944Z,30.90
2022-08-17T10:26:14.716Z,31.00
2022-08-17T10:29:17.796Z,31.00
2022-08-17T10:31:50.155Z,31.00
2022-08-17T10:34:41.568Z,30.70
2022-08-17T10:37:25.566Z,30.00
2022-08-17T10:40:39.187Z,29.60
2022-08-17T10:44:36.582Z,29.20
2022-08-17T10:47:17.508Z,29.00
2022-08-17T10:49:54.300Z,29.00
2022-08-17T10:52:50.528Z,29.10
2022-08-17T10:55:19.070Z,29.10
2022-08-17T10:57:50.402Z,29.30
2022-08-17T11:00:56.546Z,29.30
2022-08-17T11:03:25.305Z,29.30
2022-08-17T11:06:21.807Z,29.00
2022-08-17T11:09:18.661Z,28.80
2022-08-17T11:12:15.559Z,28.80
2022-08-17T11:15:39.012Z,28.70
2022-08-17T11:18:53.575Z,28.60
2022-08-17T11:22:06.447Z,28.60
2022-08-17T11:24:50.251Z,28.60
2022-08-17T11:27:35.551Z,28.30
2022-08-17T11:30:11.954Z,28.20
2022-08-17T11:32:47.356Z,28.10
2022-08-17T11:35:23.794Z,28.00
2022-08-17T11:38:25.311Z,28.00
2022-08-17T11:41:38.937Z,27.90
2022-08-17T11:44:37.951Z,27.80
2022-08-17T11:47:35.809Z,27.80
2022-08-17T11:50:52.061Z,27.80
2022-08-17T11:54:21.470Z,27.70
2022-08-17T11:56:51.238Z,27.60
2022-08-17T11:59:45.935Z,27.60
2022-08-17T12:02:35.367Z,27.50
2022-08-17T12:05:37.141Z,27.50
2022-08-17T12:08:15.216Z,27.70
2022-08-17T12:11:10.019Z,27.70
2022-08-17T12:13:46.816Z,27.80
2022-08-17T12:16:19.225Z,27.70
2022-08-17T12:18:59.516Z,27.60
2022-08-17T12:21:43.585Z,27.70
2022-08-17T12:24:38.407Z,27.80
2022-08-17T12:27:07.719Z,27.90
2022-08-17T12:29:39.195Z,28.10
2022-08-17T12:32:13.101Z,28.10
2022-08-17T12:34:42.724Z,28.00
2022-08-17T12:37:24.991Z,28.00
2022-08-17T12:39:57.099Z,28.10
2022-08-17T12:42:34.796Z,28.20
2022-08-17T12:45:04.036Z,28.30
2022-08-17T12:47:32.841Z,28.40
2022-08-17T12:50:29.508Z,28.70
2022-08-17T12:53:01.140Z,29.20
2022-08-17T12:55:35.135Z,29.10
2022-08-17T12:58:02.370Z,29.00
2022-08-17T13:00:32.925Z,28.80
2022-08-17T13:03:06.119Z,28.70
2022-08-17T13:05:55.904Z,28.60
2022-08-17T13:08:42.879Z,28.50
2022-08-17T13:11:22.356Z,28.40
2022-08-17T13:13:52.116Z,28.40
2022-08-17T13:16:25.426Z,28.40
2022-08-17T13:19:07.102Z,28.70
2022-08-17T13:21:37.727Z,28.90
2022-08-17T13:24:38.186Z,29.00
2022-08-17T13:27:12.865Z,29.00
2022-08-17T13:29:59.716Z,29.60
2022-08-17T13:32:36.755Z,30.90
2022-08-17T13:35:44.210Z,32.50
2022-08-17T13:38:39.555Z,33.30
2022-08-17T13:41:07.587Z,33.90
2022-08-17T13:43:48.597Z,34.10
2022-08-17T13:46:22.019Z,33.40
2022-08-17T13:49:05.951Z,33.30
2022-08-17T13:51:41.389Z,33.00
2022-08-17T13:54:47.599Z,32.70
2022-08-17T13:57:24.749Z,33.00
2022-08-17T14:00:06.035Z,33.20
2022-08-17T14:02:33.011Z,33.40
2022-08-17T14:05:02.060Z,33.40
2022-08-17T14:07:36.867Z,33.20
2022-08-17T14:10:11.951Z,33.00
2022-08-17T14:12:41.356Z,32.90
2022-08-17T14:15:09.677Z,33.10
2022-08-17T14:17:48.697Z,32.90
2022-08-17T14:20:18.203Z,32.40
2022-08-17T14:22:50.245Z,31.70
2022-08-17T14:25:25.022Z,31.30
2022-08-17T14:27:53.785Z,30.80
2022-08-17T14:30:24.613Z,30.70
2022-08-17T14:32:53.085Z,30.70
2022-08-17T14:35:22.444Z,30.60
2022-08-17T14:37:50.209Z,30.50
2022-08-17T14:40:20.828Z,30.50
2022-08-17T14:42:48.276Z,30.40
2022-08-17T14:45:29.607Z,30.50
2022-08-17T14:48:00.777Z,30.60
2022-08-17T14:50:27.833Z,30.70
2022-08-17T14:52:57.981Z,30.40
2022-08-17T14:55:27.413Z,29.90
2022-08-17T14:57:54.329Z,29.40
2022-08-17T15:00:21.426Z,29.10
2022-08-17T15:02:53.838Z,28.80
2022-08-17T15:05:23.430Z,28.60
2022-08-17T15:07:50.951Z,28.50
2022-08-17T15:10:18.172Z,28.40
2022-08-17T15:12:45.546Z,28.30
2022-08-17T15:15:15.195Z,28.30
2022-08-17T15:17:45.881Z,28.40
2022-08-17T15:20:20.866Z,28.40
2022-08-17T15:22:55.319Z,28.40
2022-08-17T15:25:24.340Z,28.40
2022-08-17T15:27:51.812Z,28.30
2022-08-17T15:30:19.951Z,28.30
2022-08-17T15:32:54.502Z,28.20
2022-08-17T15:35:28.734Z,28.10
2022-08-17T15:38:10.197Z,28.10
2022-08-17T15:40:44.174Z,28.10
2022-08-17T15:43:14.636Z,28.40
2022-08-17T15:45:42.776Z,28.60
2022-08-17T15:48:09.972Z,28.70
2022-08-17T15:50:36.961Z,28.60
2022-08-17T15:53:04.992Z,28.40
2022-08-17T15:55:33.117Z,28.10
2022-08-17T15:58:00.728Z,28.00
2022-08-17T16:00:29.407Z,28.00
2022-08-17T16:03:44.451Z,28.10
2022-08-17T16:05:44.435Z,28.00
2022-08-17T16:08:18.515Z,27.80
2022-08-17T16:10:48.237Z,27.80
2022-08-17T16:13:17.925Z,27.80
2022-08-17T16:15:53.026Z,27.80
2022-08-17T16:18:31.380Z,27.80
2022-08-17T16:21:23.109Z,27.70
2022-08-17T16:23:52.333Z,27.50
2022-08-17T16:26:19.497Z,27.30
2022-08-17T16:28:46.874Z,27.30
2022-08-17T16:31:14.661Z,27.20
2022-08-17T16:33:42.261Z,27.10
2022-08-17T16:36:29.575Z,27.00
2022-08-17T16:38:57.131Z,27.10
2022-08-17T16:41:42.511Z,27.00
2022-08-17T16:44:09.370Z,27.00
2022-08-17T16:46:46.092Z,27.00
2022-08-17T16:49:35.404Z,27.00
2022-08-17T16:52:02.991Z,27.10
2022-08-17T16:54:30.283Z,27.10
2022-08-17T16:56:59.276Z,27.00
2022-08-17T16:59:32.289Z,27.00
2022-08-17T17:02:12.988Z,26.90
2022-08-17T17:05:27.433Z,26.90
2022-08-17T17:08:25.642Z,26.80
2022-08-17T17:10:55.911Z,26.80
2022-08-17T17:14:08.697Z,26.70
2022-08-17T17:16:46.451Z,26.60
2022-08-17T17:19:34.861Z,26.40
2022-08-17T17:22:35.409Z,26.30
2022-08-17T17:25:31.748Z,26.20
2022-08-17T17:28:35.067Z,26.20
2022-08-17T17:31:32.032Z,26.10
2022-08-17T17:34:04.585Z,26.10
2022-08-17T17:37:02.007Z,25.90
2022-08-17T17:39:57.830Z,25.80
2022-08-17T17:42:28.960Z,25.70
2022-08-17T17:45:27.764Z,25.70
2022-08-17T17:47:54.681Z,25.60
2022-08-17T17:50:32.041Z,25.60
2022-08-17T17:53:09.606Z,25.50
2022-08-17T17:56:43.714Z,25.50
2022-08-17T18:06:00.592Z,25.30
2022-08-17T18:08:47.259Z,25.20
2022-08-17T18:11:51.639Z,25.10
2022-08-17T18:14:50.783Z,25.00
2022-08-17T18:17:18.738Z,24.90
2022-08-17T18:19:48.615Z,24.80
2022-08-17T18:22:20.618Z,24.70
2022-08-17T18:24:56.234Z,24.60
2022-08-17T18:27:38.795Z,24.50
2022-08-17T18:30:35.725Z,24.40
2022-08-17T18:33:23.375Z,24.30
2022-08-17T18:35:58.589Z,24.20
2022-08-17T18:38:34.261Z,24.10
2022-08-17T18:41:21.268Z,24.00
2022-08-17T18:44:16.194Z,23.90
2022-08-17T18:46:43.173Z,23.90
2022-08-17T18:49:28.698Z,23.80
2022-08-17T18:52:15.378Z,23.70
2022-08-17T18:55:22.106Z,23.70
2022-08-17T18:57:59.660Z,23.60
2022-08-17T19:00:38.378Z,23.50
2022-08-17T19:03:41.426Z,23.40
2022-08-17T19:06:31.255Z,23.40
2022-08-17T19:08:58.464Z,23.20
2022-08-17T19:11:34.036Z,23.20
2022-08-17T19:14:10.664Z,23.20
2022-08-17T19:16:54.592Z,23.10
2022-08-17T19:19:56.606Z,23.10
2022-08-17T19:23:12.759Z,23.00
2022-08-17T19:25:47.458Z,22.90
2022-08-17T19:28:38.562Z,22.80
2022-08-17T19:31:17.050Z,22.70
2022-08-17T19:33:44.527Z,22.60
2022-08-17T19:36:56.675Z,22.60
2022-08-17T19:39:55.698Z,22.50
2022-08-17T19:42:56.128Z,22.50
2022-08-17T19:46:05.946Z,22.40
2022-08-17T19:49:10.206Z,22.30
2022-08-17T19:52:10.733Z,22.30
2022-08-17T19:54:42.154Z,22.20
2022-08-17T19:57:49.218Z,22.10
2022-08-17T20:00:17.999Z,22.00
2022-08-17T20:03:16.655Z,22.00
2022-08-17T20:06:13.111Z,21.80
2022-08-17T20:12:05.919Z,21.70
2022-08-17T20:14:53.308Z,21.60
2022-08-17T20:17:24.986Z,21.60
2022-08-17T20:20:22.233Z,21.60
2022-08-17T20:22:58.764Z,21.50
2022-08-17T20:26:05.728Z,21.50
2022-08-17T20:28:35.620Z,21.50
2022-08-17T20:31:26.494Z,21.40
2022-08-17T20:33:55.898Z,21.30
2022-08-17T20:36:24.416Z,21.20
2022-08-17T20:39:00.284Z,21.20
2022-08-17T20:41:30.891Z,21.20
2022-08-17T20:44:07.157Z,21.10
2022-08-17T20:46:52.154Z,21.00
2022-08-17T20:49:35.180Z,21.00
2022-08-17T20:52:16.664Z,20.90
2022-08-17T20:54:57.361Z,20.80
2022-08-17T20:57:48.571Z,20.80
2022-08-17T21:00:40.683Z,20.70
2022-08-17T21:03:50.252Z,20.80
2022-08-17T21:06:21.194Z,20.70
2022-08-17T21:09:13.377Z,20.70
2022-08-17T21:12:03.049Z,20.60
2022-08-17T21:14:56.467Z,20.60
2022-08-17T21:17:59.260Z,20.60
2022-08-17T21:21:24.553Z,20.50
2022-08-17T21:24:32.014Z,20.50
2022-08-17T21:27:40.225Z,20.50
2022-08-17T21:30:41.390Z,20.50
2022-08-17T21:33:39.563Z,20.40
2022-08-17T21:36:23.847Z,20.30
2022-08-17T21:39:02.292Z,20.30
2022-08-17T21:41:35.223Z,20.10
2022-08-17T21:44:32.027Z,20.00
2022-08-17T21:47:20.189Z,20.00
2022-08-17T21:49:47.567Z,19.90
2022-08-17T21:52:17.714Z,19.80
2022-08-17T21:54:52.223Z,19.90
2022-08-17T21:57:27.594Z,19.90
2022-08-17T22:00:00.386Z,19.80
2022-08-17T22:02:55.389Z,19.80
2022-08-17T22:05:34.379Z,19.70
2022-08-17T22:08:19.641Z,19.70
2022-08-17T22:10:51.275Z,19.70
2022-08-17T22:13:29.453Z,19.60
2022-08-17T22:16:28.618Z,19.60
2022-08-17T22:18:58.409Z,19.60
2022-08-17T22:21:26.163Z,19.50
2022-08-17T22:24:06.825Z,19.50
2022-08-17T22:27:13.081Z,19.40
2022-08-17T22:29:57.504Z,19.40
2022-08-17T22:32:51.569Z,19.30
2022-08-17T22:35:47.969Z,19.30
2022-08-17T22:38:41.668Z,19.30
2022-08-17T22:41:48.415Z,19.20
2022-08-17T22:44:51.713Z,19.10
2022-08-17T22:47:38.651Z,19.10
2022-08-17T22:50:14.157Z,19.00
2022-08-17T22:53:03.025Z,19.00
2022-08-17T22:55:50.397Z,19.00
2022-08-17T22:58:39.500Z,19.00
2022-08-17T23:01:46.265Z,19.00
2022-08-17T23:04:33.330Z,18.90
2022-08-17T23:07:00.219Z,18.90
2022-08-17T23:09:27.534Z,18.90
2022-08-17T23:11:58.751Z,18.80
2022-08-17T23:14:31.605Z,18.80
2022-08-17T23:16:59.388Z,18.80
2022-08-17T23:19:27.478Z,18.80
2022-08-17T23:21:56.371Z,18.70
2022-08-17T23:24:26.308Z,18.70
2022-08-17T23:26:54.096Z,18.60
2022-08-17T23:29:21.548Z,18.60
2022-08-17T23:31:50.662Z,18.60
2022-08-17T23:34:18.629Z,18.60
2022-08-17T23:36:52.915Z,18.70
2022-08-17T23:39:28.560Z,18.70
2022-08-17T23:42:01.511Z,18.70
2022-08-17T23:44:28.925Z,18.70
2022-08-17T23:46:55.908Z,18.60
2022-08-17T23:49:24.871Z,18.60
2022-08-17T23:51:55.221Z,18.60
2022-08-17T23:54:29.481Z,18.60
2022-08-17T23:56:56.596Z,18.60
2022-08-17T23:59:23.739Z,18.50
